sensor_id;sensor_type;location;lat;lon;timestamp;P1;durP1;ratioP1;P2;durP2;ratioP2
53203;SDS011;39086;54.424;18.456;2023-07-13T00:00:44;7.00;;;5.23;;
53203;SDS011;39086;54.424;18.456;2023-07-13T00:01:47;10.07;;;5.37;;
53203;SDS011;39086;54.424;18.456;2023-07-13T00:02:51;7.27;;;5.40;;
53203;SDS011;39086;54.424;18.456;2023-07-13T00:03:55;8.57;;;5.40;;
53203;SDS011;39086;54.424;18.456;2023-07-13T00:04:58;9.53;;;5.63;;
53203;SDS011;39086;54.424;18.456;2023-07-13T00:06:01;8.17;;;5.20;;
53203;SDS011;39086;54.424;18.456;2023-07-13T00:07:06;6.00;;;5.40;;
53203;SDS011;39086;54.424;18.456;2023-07-13T00:08:10;6.83;;;4.50;;
53203;SDS011;39086;54.424;18.456;2023-07-13T00:09:12;6.47;;;4.80;;
53203;SDS011;39086;54.424;18.456;2023-07-13T00:10:16;6.00;;;5.40;;
53203;SDS011;39086;54.424;18.456;2023-07-13T00:11:19;6.47;;;5.27;;
53203;SDS011;39086;54.424;18.456;2023-07-13T00:12:23;7.87;;;5.90;;
53203;SDS011;39086;54.424;18.456;2023-07-13T00:13:26;6.67;;;5.23;;
53203;SDS011;39086;54.424;18.456;2023-07-13T00:14:30;7.60;;;5.53;;
53203;SDS011;39086;54.424;18.456;2023-07-13T00:15:32;5.73;;;5.23;;
53203;SDS011;39086;54.424;18.456;2023-07-13T00:16:37;5.90;;;5.30;;
53203;SDS011;39086;54.424;18.456;2023-07-13T00:17:40;5.83;;;5.00;;
53203;SDS011;39086;54.424;18.456;2023-07-13T00:18:46;5.43;;;4.93;;
53203;SDS011;39086;54.424;18.456;2023-07-13T00:19:48;5.60;;;5.10;;
53203;SDS011;39086;54.424;18.456;2023-07-13T00:20:52;6.17;;;5.37;;
53203;SDS011;39086;54.424;18.456;2023-07-13T00:21:55;7.13;;;5.50;;
53203;SDS011;39086;54.424;18.456;2023-07-13T00:23:00;6.00;;;5.10;;
53203;SDS011;39086;54.424;18.456;2023-07-13T00:24:02;5.97;;;5.27;;
53203;SDS011;39086;54.424;18.456;2023-07-13T00:25:06;6.40;;;4.97;;
53203;SDS011;39086;54.424;18.456;2023-07-13T00:26:09;5.97;;;5.33;;
53203;SDS011;39086;54.424;18.456;2023-07-13T00:27:14;6.57;;;5.47;;
53203;SDS011;39086;54.424;18.456;2023-07-13T00:28:16;7.03;;;5.20;;
53203;SDS011;39086;54.424;18.456;2023-07-13T00:29:19;6.70;;;5.30;;
53203;SDS011;39086;54.424;18.456;2023-07-13T00:30:22;6.00;;;5.40;;
53203;SDS011;39086;54.424;18.456;2023-07-13T00:31:27;6.73;;;5.47;;
53203;SDS011;39086;54.424;18.456;2023-07-13T00:32:29;8.80;;;5.50;;
53203;SDS011;39086;54.424;18.456;2023-07-13T00:33:33;6.43;;;5.83;;
53203;SDS011;39086;54.424;18.456;2023-07-13T00:34:35;5.77;;;5.27;;
53203;SDS011;39086;54.424;18.456;2023-07-13T00:35:39;7.30;;;5.23;;
53203;SDS011;39086;54.424;18.456;2023-07-13T00:36:46;5.67;;;5.17;;
53203;SDS011;39086;54.424;18.456;2023-07-13T00:37:49;7.93;;;5.23;;
53203;SDS011;39086;54.424;18.456;2023-07-13T00:38:53;5.50;;;5.00;;
53203;SDS011;39086;54.424;18.456;2023-07-13T00:39:56;6.97;;;5.43;;
53203;SDS011;39086;54.424;18.456;2023-07-13T00:40:58;6.97;;;6.33;;
53203;SDS011;39086;54.424;18.456;2023-07-13T00:42:02;5.73;;;5.20;;
53203;SDS011;39086;54.424;18.456;2023-07-13T00:43:08;5.80;;;5.00;;
53203;SDS011;39086;54.424;18.456;2023-07-13T00:44:12;5.90;;;5.30;;
53203;SDS011;39086;54.424;18.456;2023-07-13T00:46:37;7.33;;;5.57;;
53203;SDS011;39086;54.424;18.456;2023-07-13T00:47:40;6.43;;;5.83;;
53203;SDS011;39086;54.424;18.456;2023-07-13T00:48:43;5.43;;;4.90;;
53203;SDS011;39086;54.424;18.456;2023-07-13T00:49:47;8.87;;;5.60;;
53203;SDS011;39086;54.424;18.456;2023-07-13T00:50:49;10.97;;;5.70;;
53203;SDS011;39086;54.424;18.456;2023-07-13T00:51:55;5.33;;;4.93;;
53203;SDS011;39086;54.424;18.456;2023-07-13T00:52:58;8.63;;;5.60;;
53203;SDS011;39086;54.424;18.456;2023-07-13T00:54:03;8.77;;;5.60;;
53203;SDS011;39086;54.424;18.456;2023-07-13T00:55:07;7.83;;;5.60;;
53203;SDS011;39086;54.424;18.456;2023-07-13T00:56:11;6.03;;;4.90;;
53203;SDS011;39086;54.424;18.456;2023-07-13T00:57:15;5.20;;;4.53;;
53203;SDS011;39086;54.424;18.456;2023-07-13T00:58:18;6.00;;;5.07;;
53203;SDS011;39086;54.424;18.456;2023-07-13T00:59:22;5.60;;;5.10;;
53203;SDS011;39086;54.424;18.456;2023-07-13T01:00:25;9.70;;;5.70;;
53203;SDS011;39086;54.424;18.456;2023-07-13T01:01:29;5.63;;;5.03;;
53203;SDS011;39086;54.424;18.456;2023-07-13T01:02:32;9.97;;;5.60;;
53203;SDS011;39086;54.424;18.456;2023-07-13T01:03:36;6.70;;;5.30;;
53203;SDS011;39086;54.424;18.456;2023-07-13T01:04:39;6.53;;;5.73;;
53203;SDS011;39086;54.424;18.456;2023-07-13T01:05:46;6.67;;;5.30;;
53203;SDS011;39086;54.424;18.456;2023-07-13T01:06:49;6.40;;;5.80;;
53203;SDS011;39086;54.424;18.456;2023-07-13T01:07:53;6.43;;;5.13;;
53203;SDS011;39086;54.424;18.456;2023-07-13T01:08:56;5.97;;;5.40;;
53203;SDS011;39086;54.424;18.456;2023-07-13T01:10:02;5.37;;;4.93;;
53203;SDS011;39086;54.424;18.456;2023-07-13T01:11:05;7.33;;;5.33;;
53203;SDS011;39086;54.424;18.456;2023-07-13T01:12:09;5.80;;;5.30;;
53203;SDS011;39086;54.424;18.456;2023-07-13T01:13:13;5.93;;;5.43;;
53203;SDS011;39086;54.424;18.456;2023-07-13T01:14:15;7.43;;;5.53;;
53203;SDS011;39086;54.424;18.456;2023-07-13T01:15:33;6.53;;;5.27;;
53203;SDS011;39086;54.424;18.456;2023-07-13T01:16:36;6.70;;;5.57;;
53203;SDS011;39086;54.424;18.456;2023-07-13T01:17:40;6.13;;;5.13;;
53203;SDS011;39086;54.424;18.456;2023-07-13T01:18:43;8.33;;;5.77;;
53203;SDS011;39086;54.424;18.456;2023-07-13T01:19:46;5.80;;;5.20;;
53203;SDS011;39086;54.424;18.456;2023-07-13T01:20:54;11.93;;;5.90;;
53203;SDS011;39086;54.424;18.456;2023-07-13T01:21:57;8.93;;;5.80;;
53203;SDS011;39086;54.424;18.456;2023-07-13T01:23:00;6.10;;;5.50;;
53203;SDS011;39086;54.424;18.456;2023-07-13T01:24:03;7.33;;;5.97;;
53203;SDS011;39086;54.424;18.456;2023-07-13T01:25:06;7.63;;;5.33;;
53203;SDS011;39086;54.424;18.456;2023-07-13T01:26:09;10.17;;;6.13;;
53203;SDS011;39086;54.424;18.456;2023-07-13T01:27:16;8.03;;;5.83;;
53203;SDS011;39086;54.424;18.456;2023-07-13T01:28:20;6.03;;;5.47;;
53203;SDS011;39086;54.424;18.456;2023-07-13T01:29:22;7.57;;;5.57;;
53203;SDS011;39086;54.424;18.456;2023-07-13T01:30:26;6.00;;;5.40;;
53203;SDS011;39086;54.424;18.456;2023-07-13T01:31:28;6.50;;;5.90;;
53203;SDS011;39086;54.424;18.456;2023-07-13T01:32:32;8.83;;;5.40;;
53203;SDS011;39086;54.424;18.456;2023-07-13T01:33:36;7.13;;;5.80;;
53203;SDS011;39086;54.424;18.456;2023-07-13T01:34:40;8.57;;;5.60;;
53203;SDS011;39086;54.424;18.456;2023-07-13T01:35:44;7.30;;;5.70;;
53203;SDS011;39086;54.424;18.456;2023-07-13T01:36:49;7.83;;;5.13;;
53203;SDS011;39086;54.424;18.456;2023-07-13T01:37:54;7.93;;;5.80;;
53203;SDS011;39086;54.424;18.456;2023-07-13T01:38:58;8.20;;;5.77;;
53203;SDS011;39086;54.424;18.456;2023-07-13T01:40:01;6.33;;;5.73;;
53203;SDS011;39086;54.424;18.456;2023-07-13T01:41:05;6.63;;;5.90;;
53203;SDS011;39086;54.424;18.456;2023-07-13T01:42:08;6.67;;;6.07;;
53203;SDS011;39086;54.424;18.456;2023-07-13T01:43:12;7.40;;;5.77;;
53203;SDS011;39086;54.424;18.456;2023-07-13T01:44:15;6.80;;;6.07;;
53203;SDS011;39086;54.424;18.456;2023-07-13T01:45:19;9.33;;;6.50;;
53203;SDS011;39086;54.424;18.456;2023-07-13T01:46:21;11.03;;;6.37;;
53203;SDS011;39086;54.424;18.456;2023-07-13T01:47:25;13.00;;;6.60;;
53203;SDS011;39086;54.424;18.456;2023-07-13T01:48:29;11.10;;;7.03;;
53203;SDS011;39086;54.424;18.456;2023-07-13T01:49:32;8.47;;;6.90;;
53203;SDS011;39086;54.424;18.456;2023-07-13T01:50:35;9.80;;;7.23;;
53203;SDS011;39086;54.424;18.456;2023-07-13T01:51:38;10.33;;;6.80;;
53203;SDS011;39086;54.424;18.456;2023-07-13T01:52:42;9.87;;;7.07;;
53203;SDS011;39086;54.424;18.456;2023-07-13T01:53:44;13.27;;;8.00;;
53203;SDS011;39086;54.424;18.456;2023-07-13T01:54:47;8.23;;;7.30;;
53203;SDS011;39086;54.424;18.456;2023-07-13T01:55:52;8.50;;;6.77;;
53203;SDS011;39086;54.424;18.456;2023-07-13T01:56:55;10.00;;;6.93;;
53203;SDS011;39086;54.424;18.456;2023-07-13T01:57:58;7.73;;;6.93;;
53203;SDS011;39086;54.424;18.456;2023-07-13T01:59:02;9.63;;;7.03;;
53203;SDS011;39086;54.424;18.456;2023-07-13T02:00:05;11.10;;;6.67;;
53203;SDS011;39086;54.424;18.456;2023-07-13T02:01:09;13.47;;;7.13;;
53203;SDS011;39086;54.424;18.456;2023-07-13T02:02:11;11.13;;;7.37;;
53203;SDS011;39086;54.424;18.456;2023-07-13T02:03:15;11.13;;;6.90;;
53203;SDS011;39086;54.424;18.456;2023-07-13T02:04:19;7.13;;;6.33;;
53203;SDS011;39086;54.424;18.456;2023-07-13T02:05:23;9.77;;;7.33;;
53203;SDS011;39086;54.424;18.456;2023-07-13T02:06:25;9.23;;;6.67;;
53203;SDS011;39086;54.424;18.456;2023-07-13T02:07:30;8.47;;;6.90;;
53203;SDS011;39086;54.424;18.456;2023-07-13T02:08:33;9.77;;;6.47;;
53203;SDS011;39086;54.424;18.456;2023-07-13T02:09:36;8.93;;;7.13;;
53203;SDS011;39086;54.424;18.456;2023-07-13T02:10:39;8.80;;;6.53;;
53203;SDS011;39086;54.424;18.456;2023-07-13T02:11:41;7.50;;;6.53;;
53203;SDS011;39086;54.424;18.456;2023-07-13T02:12:45;8.43;;;7.13;;
53203;SDS011;39086;54.424;18.456;2023-07-13T02:13:47;10.60;;;6.60;;
53203;SDS011;39086;54.424;18.456;2023-07-13T02:14:50;8.37;;;7.50;;
53203;SDS011;39086;54.424;18.456;2023-07-13T02:15:52;11.37;;;6.87;;
53203;SDS011;39086;54.424;18.456;2023-07-13T02:16:56;10.57;;;6.93;;
53203;SDS011;39086;54.424;18.456;2023-07-13T02:17:58;8.83;;;7.00;;
53203;SDS011;39086;54.424;18.456;2023-07-13T02:19:01;9.33;;;6.30;;
53203;SDS011;39086;54.424;18.456;2023-07-13T02:20:04;8.70;;;6.80;;
53203;SDS011;39086;54.424;18.456;2023-07-13T02:21:08;11.77;;;6.70;;
53203;SDS011;39086;54.424;18.456;2023-07-13T02:22:12;7.90;;;6.93;;
53203;SDS011;39086;54.424;18.456;2023-07-13T02:23:15;8.17;;;6.70;;
53203;SDS011;39086;54.424;18.456;2023-07-13T02:24:20;14.00;;;6.70;;
53203;SDS011;39086;54.424;18.456;2023-07-13T02:25:22;9.83;;;7.07;;
53203;SDS011;39086;54.424;18.456;2023-07-13T02:26:26;10.97;;;6.60;;
53203;SDS011;39086;54.424;18.456;2023-07-13T02:27:28;10.40;;;6.93;;
53203;SDS011;39086;54.424;18.456;2023-07-13T02:28:32;11.00;;;7.13;;
53203;SDS011;39086;54.424;18.456;2023-07-13T02:29:34;8.50;;;6.67;;
53203;SDS011;39086;54.424;18.456;2023-07-13T02:30:37;10.13;;;7.10;;
53203;SDS011;39086;54.424;18.456;2023-07-13T02:31:40;8.67;;;7.20;;
53203;SDS011;39086;54.424;18.456;2023-07-13T02:32:43;8.40;;;6.70;;
53203;SDS011;39086;54.424;18.456;2023-07-13T02:33:45;9.67;;;7.40;;
53203;SDS011;39086;54.424;18.456;2023-07-13T02:34:49;11.43;;;7.57;;
53203;SDS011;39086;54.424;18.456;2023-07-13T02:35:51;8.57;;;7.30;;
53203;SDS011;39086;54.424;18.456;2023-07-13T02:36:54;7.93;;;6.97;;
53203;SDS011;39086;54.424;18.456;2023-07-13T02:37:56;11.53;;;7.30;;
53203;SDS011;39086;54.424;18.456;2023-07-13T02:39:00;11.90;;;7.07;;
53203;SDS011;39086;54.424;18.456;2023-07-13T02:40:05;13.57;;;7.53;;
53203;SDS011;39086;54.424;18.456;2023-07-13T02:41:09;11.10;;;7.13;;
53203;SDS011;39086;54.424;18.456;2023-07-13T02:42:15;10.20;;;7.30;;
53203;SDS011;39086;54.424;18.456;2023-07-13T02:43:18;12.23;;;7.20;;
53203;SDS011;39086;54.424;18.456;2023-07-13T02:44:20;9.27;;;6.40;;
53203;SDS011;39086;54.424;18.456;2023-07-13T02:45:24;9.17;;;7.53;;
53203;SDS011;39086;54.424;18.456;2023-07-13T02:46:26;11.27;;;8.07;;
53203;SDS011;39086;54.424;18.456;2023-07-13T02:47:31;8.63;;;7.47;;
53203;SDS011;39086;54.424;18.456;2023-07-13T02:48:34;9.77;;;7.23;;
53203;SDS011;39086;54.424;18.456;2023-07-13T02:49:37;12.70;;;7.47;;
53203;SDS011;39086;54.424;18.456;2023-07-13T02:50:39;9.23;;;6.30;;
53203;SDS011;39086;54.424;18.456;2023-07-13T02:51:43;11.23;;;7.63;;
53203;SDS011;39086;54.424;18.456;2023-07-13T02:52:45;13.30;;;7.40;;
53203;SDS011;39086;54.424;18.456;2023-07-13T02:53:49;11.10;;;6.80;;
53203;SDS011;39086;54.424;18.456;2023-07-13T02:54:51;12.90;;;7.13;;
53203;SDS011;39086;54.424;18.456;2023-07-13T02:55:56;12.33;;;7.13;;
53203;SDS011;39086;54.424;18.456;2023-07-13T02:56:58;8.63;;;7.03;;
53203;SDS011;39086;54.424;18.456;2023-07-13T02:58:01;9.93;;;7.23;;
53203;SDS011;39086;54.424;18.456;2023-07-13T02:59:04;14.07;;;7.53;;
53203;SDS011;39086;54.424;18.456;2023-07-13T03:00:07;9.97;;;7.33;;
53203;SDS011;39086;54.424;18.456;2023-07-13T03:01:12;7.83;;;7.17;;
53203;SDS011;39086;54.424;18.456;2023-07-13T03:02:20;12.40;;;8.00;;
53203;SDS011;39086;54.424;18.456;2023-07-13T03:03:23;15.23;;;7.63;;
53203;SDS011;39086;54.424;18.456;2023-07-13T03:04:25;12.37;;;7.87;;
53203;SDS011;39086;54.424;18.456;2023-07-13T03:05:28;10.43;;;7.23;;
53203;SDS011;39086;54.424;18.456;2023-07-13T03:06:31;11.63;;;7.47;;
53203;SDS011;39086;54.424;18.456;2023-07-13T03:07:33;7.97;;;7.17;;
53203;SDS011;39086;54.424;18.456;2023-07-13T03:08:37;10.87;;;7.10;;
53203;SDS011;39086;54.424;18.456;2023-07-13T03:09:40;9.03;;;7.50;;
53203;SDS011;39086;54.424;18.456;2023-07-13T03:10:43;9.73;;;7.27;;
53203;SDS011;39086;54.424;18.456;2023-07-13T03:11:47;11.00;;;7.80;;
53203;SDS011;39086;54.424;18.456;2023-07-13T03:12:50;12.37;;;7.73;;
53203;SDS011;39086;54.424;18.456;2023-07-13T03:13:54;14.23;;;7.50;;
53203;SDS011;39086;54.424;18.456;2023-07-13T03:14:57;10.53;;;7.63;;
53203;SDS011;39086;54.424;18.456;2023-07-13T03:16:00;16.23;;;7.50;;
53203;SDS011;39086;54.424;18.456;2023-07-13T03:17:03;12.73;;;7.77;;
53203;SDS011;39086;54.424;18.456;2023-07-13T03:18:06;11.03;;;7.90;;
53203;SDS011;39086;54.424;18.456;2023-07-13T03:19:09;9.40;;;7.07;;
53203;SDS011;39086;54.424;18.456;2023-07-13T03:20:12;8.53;;;7.10;;
53203;SDS011;39086;54.424;18.456;2023-07-13T03:21:14;10.00;;;7.40;;
53203;SDS011;39086;54.424;18.456;2023-07-13T03:22:18;10.23;;;7.63;;
53203;SDS011;39086;54.424;18.456;2023-07-13T03:23:21;11.43;;;7.97;;
53203;SDS011;39086;54.424;18.456;2023-07-13T03:24:24;11.77;;;7.60;;
53203;SDS011;39086;54.424;18.456;2023-07-13T03:25:27;13.50;;;8.03;;
53203;SDS011;39086;54.424;18.456;2023-07-13T03:26:30;11.90;;;7.60;;
53203;SDS011;39086;54.424;18.456;2023-07-13T03:27:34;15.80;;;8.27;;
53203;SDS011;39086;54.424;18.456;2023-07-13T03:28:37;15.37;;;7.80;;
53203;SDS011;39086;54.424;18.456;2023-07-13T03:29:39;12.00;;;7.77;;
53203;SDS011;39086;54.424;18.456;2023-07-13T03:30:43;12.20;;;7.87;;
53203;SDS011;39086;54.424;18.456;2023-07-13T03:31:45;11.27;;;8.30;;
53203;SDS011;39086;54.424;18.456;2023-07-13T03:32:48;10.60;;;7.80;;
53203;SDS011;39086;54.424;18.456;2023-07-13T03:33:51;10.77;;;7.93;;
53203;SDS011;39086;54.424;18.456;2023-07-13T03:34:54;8.73;;;7.57;;
53203;SDS011;39086;54.424;18.456;2023-07-13T03:35:56;9.40;;;7.33;;
53203;SDS011;39086;54.424;18.456;2023-07-13T03:36:58;10.20;;;7.33;;
53203;SDS011;39086;54.424;18.456;2023-07-13T03:38:01;10.67;;;7.07;;
53203;SDS011;39086;54.424;18.456;2023-07-13T03:39:04;13.10;;;7.43;;
53203;SDS011;39086;54.424;18.456;2023-07-13T03:40:10;10.23;;;7.37;;
53203;SDS011;39086;54.424;18.456;2023-07-13T03:41:13;7.93;;;7.20;;
53203;SDS011;39086;54.424;18.456;2023-07-13T03:42:16;11.73;;;8.30;;
53203;SDS011;39086;54.424;18.456;2023-07-13T03:43:20;8.20;;;7.40;;
53203;SDS011;39086;54.424;18.456;2023-07-13T03:44:23;10.03;;;6.67;;
53203;SDS011;39086;54.424;18.456;2023-07-13T03:45:25;9.50;;;7.30;;
53203;SDS011;39086;54.424;18.456;2023-07-13T03:46:28;13.53;;;7.40;;
53203;SDS011;39086;54.424;18.456;2023-07-13T03:47:30;9.00;;;7.13;;
53203;SDS011;39086;54.424;18.456;2023-07-13T03:48:33;10.33;;;7.40;;
53203;SDS011;39086;54.424;18.456;2023-07-13T03:49:36;11.23;;;7.40;;
53203;SDS011;39086;54.424;18.456;2023-07-13T03:50:39;9.57;;;7.37;;
53203;SDS011;39086;54.424;18.456;2023-07-13T03:51:41;14.47;;;7.27;;
53203;SDS011;39086;54.424;18.456;2023-07-13T03:52:44;14.07;;;7.17;;
53203;SDS011;39086;54.424;18.456;2023-07-13T03:53:47;14.67;;;7.60;;
53203;SDS011;39086;54.424;18.456;2023-07-13T03:54:50;11.53;;;8.37;;
53203;SDS011;39086;54.424;18.456;2023-07-13T03:55:52;10.07;;;7.97;;
53203;SDS011;39086;54.424;18.456;2023-07-13T03:56:55;14.10;;;7.10;;
53203;SDS011;39086;54.424;18.456;2023-07-13T03:57:58;13.67;;;7.47;;
53203;SDS011;39086;54.424;18.456;2023-07-13T03:59:03;12.77;;;7.73;;
53203;SDS011;39086;54.424;18.456;2023-07-13T04:00:06;11.80;;;7.93;;
53203;SDS011;39086;54.424;18.456;2023-07-13T04:01:10;10.27;;;7.97;;
53203;SDS011;39086;54.424;18.456;2023-07-13T04:02:13;13.60;;;7.87;;
53203;SDS011;39086;54.424;18.456;2023-07-13T04:03:17;9.70;;;7.70;;
53203;SDS011;39086;54.424;18.456;2023-07-13T04:04:19;13.57;;;8.37;;
53203;SDS011;39086;54.424;18.456;2023-07-13T04:05:23;14.80;;;8.53;;
53203;SDS011;39086;54.424;18.456;2023-07-13T04:06:27;12.87;;;8.23;;
53203;SDS011;39086;54.424;18.456;2023-07-13T04:07:30;16.87;;;8.73;;
53203;SDS011;39086;54.424;18.456;2023-07-13T04:08:33;12.80;;;7.67;;
53203;SDS011;39086;54.424;18.456;2023-07-13T04:09:37;12.00;;;7.43;;
53203;SDS011;39086;54.424;18.456;2023-07-13T04:10:39;18.90;;;8.13;;
53203;SDS011;39086;54.424;18.456;2023-07-13T04:11:43;13.17;;;7.47;;
53203;SDS011;39086;54.424;18.456;2023-07-13T04:12:45;15.17;;;7.07;;
53203;SDS011;39086;54.424;18.456;2023-07-13T04:13:48;12.53;;;7.30;;
53203;SDS011;39086;54.424;18.456;2023-07-13T04:14:52;19.93;;;7.17;;
53203;SDS011;39086;54.424;18.456;2023-07-13T04:15:55;14.83;;;6.90;;
53203;SDS011;39086;54.424;18.456;2023-07-13T04:16:57;11.13;;;7.07;;
53203;SDS011;39086;54.424;18.456;2023-07-13T04:18:01;10.60;;;6.40;;
53203;SDS011;39086;54.424;18.456;2023-07-13T04:19:04;11.50;;;6.37;;
53203;SDS011;39086;54.424;18.456;2023-07-13T04:20:08;15.80;;;6.30;;
53203;SDS011;39086;54.424;18.456;2023-07-13T04:21:10;14.10;;;6.17;;
53203;SDS011;39086;54.424;18.456;2023-07-13T04:22:13;10.03;;;6.23;;
53203;SDS011;39086;54.424;18.456;2023-07-13T04:23:16;13.07;;;5.93;;
53203;SDS011;39086;54.424;18.456;2023-07-13T04:24:18;11.83;;;6.27;;
53203;SDS011;39086;54.424;18.456;2023-07-13T04:25:22;12.70;;;6.03;;
53203;SDS011;39086;54.424;18.456;2023-07-13T04:26:24;12.60;;;6.80;;
53203;SDS011;39086;54.424;18.456;2023-07-13T04:27:27;16.23;;;6.27;;
53203;SDS011;39086;54.424;18.456;2023-07-13T04:28:30;11.63;;;6.10;;
53203;SDS011;39086;54.424;18.456;2023-07-13T04:29:33;18.13;;;6.20;;
53203;SDS011;39086;54.424;18.456;2023-07-13T04:30:37;11.53;;;6.00;;
53203;SDS011;39086;54.424;18.456;2023-07-13T04:31:40;14.77;;;6.13;;
53203;SDS011;39086;54.424;18.456;2023-07-13T04:32:43;12.83;;;5.90;;
53203;SDS011;39086;54.424;18.456;2023-07-13T04:33:46;14.23;;;5.67;;
53203;SDS011;39086;54.424;18.456;2023-07-13T04:34:49;12.80;;;5.60;;
53203;SDS011;39086;54.424;18.456;2023-07-13T04:35:55;14.47;;;5.53;;
53203;SDS011;39086;54.424;18.456;2023-07-13T04:36:57;13.37;;;5.90;;
53203;SDS011;39086;54.424;18.456;2023-07-13T04:38:01;14.73;;;5.87;;
53203;SDS011;39086;54.424;18.456;2023-07-13T04:39:03;9.47;;;6.20;;
53203;SDS011;39086;54.424;18.456;2023-07-13T04:40:07;12.17;;;5.80;;
53203;SDS011;39086;54.424;18.456;2023-07-13T04:41:13;10.70;;;4.93;;
53203;SDS011;39086;54.424;18.456;2023-07-13T04:42:17;9.97;;;5.23;;
53203;SDS011;39086;54.424;18.456;2023-07-13T04:43:19;8.67;;;5.00;;
53203;SDS011;39086;54.424;18.456;2023-07-13T04:44:23;10.63;;;5.13;;
53203;SDS011;39086;54.424;18.456;2023-07-13T04:45:25;15.03;;;6.00;;
53203;SDS011;39086;54.424;18.456;2023-07-13T04:46:30;10.60;;;5.23;;
53203;SDS011;39086;54.424;18.456;2023-07-13T04:47:32;11.07;;;5.07;;
53203;SDS011;39086;54.424;18.456;2023-07-13T04:48:36;7.83;;;4.43;;
53203;SDS011;39086;54.424;18.456;2023-07-13T04:49:38;9.83;;;4.43;;
53203;SDS011;39086;54.424;18.456;2023-07-13T04:50:42;10.90;;;4.77;;
53203;SDS011;39086;54.424;18.456;2023-07-13T04:51:44;10.23;;;4.67;;
53203;SDS011;39086;54.424;18.456;2023-07-13T04:52:47;11.80;;;5.10;;
53203;SDS011;39086;54.424;18.456;2023-07-13T04:53:50;20.10;;;5.10;;
53203;SDS011;39086;54.424;18.456;2023-07-13T04:55:01;11.23;;;4.77;;
53203;SDS011;39086;54.424;18.456;2023-07-13T04:56:03;10.73;;;4.00;;
53203;SDS011;39086;54.424;18.456;2023-07-13T04:57:06;9.07;;;4.03;;
53203;SDS011;39086;54.424;18.456;2023-07-13T04:58:09;10.33;;;4.43;;
53203;SDS011;39086;54.424;18.456;2023-07-13T04:59:12;6.90;;;4.00;;
53203;SDS011;39086;54.424;18.456;2023-07-13T05:00:15;8.27;;;3.90;;
53203;SDS011;39086;54.424;18.456;2023-07-13T05:01:18;9.77;;;3.97;;
53203;SDS011;39086;54.424;18.456;2023-07-13T05:02:22;9.23;;;3.93;;
53203;SDS011;39086;54.424;18.456;2023-07-13T05:03:28;11.27;;;4.03;;
53203;SDS011;39086;54.424;18.456;2023-07-13T05:04:30;9.67;;;4.03;;
53203;SDS011;39086;54.424;18.456;2023-07-13T05:05:34;7.33;;;3.80;;
53203;SDS011;39086;54.424;18.456;2023-07-13T05:06:38;7.70;;;3.83;;
53203;SDS011;39086;54.424;18.456;2023-07-13T05:07:42;9.33;;;3.77;;
53203;SDS011;39086;54.424;18.456;2023-07-13T05:08:46;9.90;;;4.13;;
53203;SDS011;39086;54.424;18.456;2023-07-13T05:09:49;11.87;;;3.87;;
53203;SDS011;39086;54.424;18.456;2023-07-13T05:10:51;8.03;;;3.50;;
53203;SDS011;39086;54.424;18.456;2023-07-13T05:11:54;5.57;;;3.63;;
53203;SDS011;39086;54.424;18.456;2023-07-13T05:12:57;7.37;;;3.77;;
53203;SDS011;39086;54.424;18.456;2023-07-13T05:14:00;13.97;;;3.87;;
53203;SDS011;39086;54.424;18.456;2023-07-13T05:15:02;6.37;;;3.27;;
53203;SDS011;39086;54.424;18.456;2023-07-13T05:16:06;9.10;;;3.70;;
53203;SDS011;39086;54.424;18.456;2023-07-13T05:17:09;5.73;;;3.20;;
53203;SDS011;39086;54.424;18.456;2023-07-13T05:18:14;10.13;;;3.10;;
53203;SDS011;39086;54.424;18.456;2023-07-13T05:19:16;13.97;;;3.23;;
53203;SDS011;39086;54.424;18.456;2023-07-13T05:20:19;10.37;;;3.60;;
53203;SDS011;39086;54.424;18.456;2023-07-13T05:21:21;7.53;;;3.30;;
53203;SDS011;39086;54.424;18.456;2023-07-13T05:22:24;7.37;;;2.90;;
53203;SDS011;39086;54.424;18.456;2023-07-13T05:23:27;5.63;;;2.93;;
53203;SDS011;39086;54.424;18.456;2023-07-13T05:24:31;6.97;;;3.03;;
53203;SDS011;39086;54.424;18.456;2023-07-13T05:25:33;8.93;;;3.67;;
53203;SDS011;39086;54.424;18.456;2023-07-13T05:26:36;6.77;;;3.40;;
53203;SDS011;39086;54.424;18.456;2023-07-13T05:27:39;4.07;;;2.60;;
53203;SDS011;39086;54.424;18.456;2023-07-13T05:28:42;8.17;;;3.03;;
53203;SDS011;39086;54.424;18.456;2023-07-13T05:29:45;7.80;;;2.97;;
53203;SDS011;39086;54.424;18.456;2023-07-13T05:30:47;8.00;;;3.10;;
53203;SDS011;39086;54.424;18.456;2023-07-13T05:31:51;7.27;;;3.20;;
53203;SDS011;39086;54.424;18.456;2023-07-13T05:32:53;4.73;;;2.80;;
53203;SDS011;39086;54.424;18.456;2023-07-13T05:33:58;5.37;;;3.47;;
53203;SDS011;39086;54.424;18.456;2023-07-13T05:35:01;9.70;;;3.20;;
53203;SDS011;39086;54.424;18.456;2023-07-13T05:36:04;9.93;;;3.33;;
53203;SDS011;39086;54.424;18.456;2023-07-13T05:37:07;9.23;;;3.83;;
53203;SDS011;39086;54.424;18.456;2023-07-13T05:38:11;5.40;;;2.57;;
53203;SDS011;39086;54.424;18.456;2023-07-13T05:39:13;7.60;;;3.03;;
53203;SDS011;39086;54.424;18.456;2023-07-13T05:40:16;8.63;;;3.33;;
53203;SDS011;39086;54.424;18.456;2023-07-13T05:41:19;9.97;;;3.30;;
53203;SDS011;39086;54.424;18.456;2023-07-13T05:42:22;7.30;;;3.30;;
53203;SDS011;39086;54.424;18.456;2023-07-13T05:43:24;8.67;;;3.27;;
53203;SDS011;39086;54.424;18.456;2023-07-13T05:44:28;9.73;;;2.63;;
53203;SDS011;39086;54.424;18.456;2023-07-13T05:45:30;8.73;;;2.73;;
53203;SDS011;39086;54.424;18.456;2023-07-13T05:46:33;5.30;;;2.47;;
53203;SDS011;39086;54.424;18.456;2023-07-13T05:47:36;7.27;;;2.67;;
53203;SDS011;39086;54.424;18.456;2023-07-13T05:48:39;6.13;;;2.80;;
53203;SDS011;39086;54.424;18.456;2023-07-13T05:49:43;8.47;;;3.27;;
53203;SDS011;39086;54.424;18.456;2023-07-13T05:50:46;10.17;;;2.83;;
53203;SDS011;39086;54.424;18.456;2023-07-13T05:51:49;5.53;;;2.70;;
53203;SDS011;39086;54.424;18.456;2023-07-13T05:52:52;6.53;;;2.60;;
53203;SDS011;39086;54.424;18.456;2023-07-13T05:53:55;6.37;;;2.53;;
53203;SDS011;39086;54.424;18.456;2023-07-13T05:54:58;7.33;;;2.60;;
53203;SDS011;39086;54.424;18.456;2023-07-13T05:56:00;9.40;;;2.80;;
53203;SDS011;39086;54.424;18.456;2023-07-13T05:57:04;7.90;;;3.20;;
53203;SDS011;39086;54.424;18.456;2023-07-13T05:58:06;8.27;;;2.80;;
53203;SDS011;39086;54.424;18.456;2023-07-13T05:59:10;8.90;;;3.30;;
53203;SDS011;39086;54.424;18.456;2023-07-13T06:00:12;10.53;;;3.33;;
53203;SDS011;39086;54.424;18.456;2023-07-13T06:01:16;8.30;;;3.43;;
53203;SDS011;39086;54.424;18.456;2023-07-13T06:02:20;6.73;;;2.63;;
53203;SDS011;39086;54.424;18.456;2023-07-13T06:03:23;9.00;;;2.70;;
53203;SDS011;39086;54.424;18.456;2023-07-13T06:04:26;8.43;;;2.60;;
53203;SDS011;39086;54.424;18.456;2023-07-13T06:05:30;6.13;;;2.50;;
53203;SDS011;39086;54.424;18.456;2023-07-13T06:06:35;3.77;;;2.47;;
53203;SDS011;39086;54.424;18.456;2023-07-13T06:07:38;6.87;;;2.70;;
53203;SDS011;39086;54.424;18.456;2023-07-13T06:08:40;7.77;;;2.60;;
53203;SDS011;39086;54.424;18.456;2023-07-13T06:09:44;5.10;;;2.70;;
53203;SDS011;39086;54.424;18.456;2023-07-13T06:10:46;6.73;;;2.77;;
53203;SDS011;39086;54.424;18.456;2023-07-13T06:11:50;6.43;;;2.93;;
53203;SDS011;39086;54.424;18.456;2023-07-13T06:12:52;5.07;;;2.50;;
53203;SDS011;39086;54.424;18.456;2023-07-13T06:13:56;6.83;;;2.83;;
53203;SDS011;39086;54.424;18.456;2023-07-13T06:14:58;4.90;;;2.37;;